sensor_id;sensor_type;location;lat;lon;timestamp;P1;durP1;ratioP1;P2;durP2;ratioP2
21999;SDS011;11164;48.818;2.322;2022-12-29T00:02:13;2.90;;;0.90;;
21999;SDS011;11164;48.818;2.322;2022-12-29T00:04:40;2.75;;;0.85;;
21999;SDS011;11164;48.818;2.322;2022-12-29T00:07:05;6.63;;;0.90;;
21999;SDS011;11164;48.818;2.322;2022-12-29T00:09:32;2.42;;;0.82;;
21999;SDS011;11164;48.818;2.322;2022-12-29T00:11:57;2.53;;;0.88;;
21999;SDS011;11164;48.818;2.322;2022-12-29T00:14:23;4.25;;;0.95;;
21999;SDS011;11164;48.818;2.322;2022-12-29T00:17:07;3.97;;;1.42;;
21999;SDS011;11164;48.818;2.322;2022-12-29T00:19:33;4.45;;;1.30;;
21999;SDS011;11164;48.818;2.322;2022-12-29T00:22:17;4.10;;;1.03;;
21999;SDS011;11164;48.818;2.322;2022-12-29T00:25:01;4.43;;;1.30;;
21999;SDS011;11164;48.818;2.322;2022-12-29T00:27:45;3.60;;;0.95;;
21999;SDS011;11164;48.818;2.322;2022-12-29T00:30:29;3.93;;;1.13;;
21999;SDS011;11164;48.818;2.322;2022-12-29T00:33:14;4.93;;;1.70;;
21999;SDS011;11164;48.818;2.322;2022-12-29T00:36:00;5.55;;;1.67;;
21999;SDS011;11164;48.818;2.322;2022-12-29T00:38:32;5.38;;;1.55;;
21999;SDS011;11164;48.818;2.322;2022-12-29T00:41:19;7.65;;;1.48;;
21999;SDS011;11164;48.818;2.322;2022-12-29T00:44:03;7.20;;;1.50;;
21999;SDS011;11164;48.818;2.322;2022-12-29T00:46:32;4.45;;;1.50;;
21999;SDS011;11164;48.818;2.322;2022-12-29T00:48:58;6.63;;;1.75;;
21999;SDS011;11164;48.818;2.322;2022-12-29T00:51:42;5.25;;;1.70;;
21999;SDS011;11164;48.818;2.322;2022-12-29T00:54:08;4.38;;;1.27;;
21999;SDS011;11164;48.818;2.322;2022-12-29T00:56:33;4.40;;;1.92;;
21999;SDS011;11164;48.818;2.322;2022-12-29T00:59:02;7.38;;;1.65;;
21999;SDS011;11164;48.818;2.322;2022-12-29T01:01:29;4.47;;;1.13;;
21999;SDS011;11164;48.818;2.322;2022-12-29T01:03:55;4.00;;;1.25;;
21999;SDS011;11164;48.818;2.322;2022-12-29T01:06:20;3.20;;;1.25;;
21999;SDS011;11164;48.818;2.322;2022-12-29T01:08:47;4.18;;;1.40;;
21999;SDS011;11164;48.818;2.322;2022-12-29T01:11:32;6.22;;;1.70;;
21999;SDS011;11164;48.818;2.322;2022-12-29T01:13:57;5.43;;;1.40;;
21999;SDS011;11164;48.818;2.322;2022-12-29T01:16:22;8.32;;;1.65;;
21999;SDS011;11164;48.818;2.322;2022-12-29T01:18:48;5.68;;;1.52;;
21999;SDS011;11164;48.818;2.322;2022-12-29T01:21:13;4.60;;;1.52;;
21999;SDS011;11164;48.818;2.322;2022-12-29T01:23:38;8.25;;;1.63;;
21999;SDS011;11164;48.818;2.322;2022-12-29T01:26:13;6.03;;;2.22;;
21999;SDS011;11164;48.818;2.322;2022-12-29T01:28:40;5.50;;;1.45;;
21999;SDS011;11164;48.818;2.322;2022-12-29T01:31:06;6.82;;;1.73;;
21999;SDS011;11164;48.818;2.322;2022-12-29T01:33:36;5.00;;;1.20;;
21999;SDS011;11164;48.818;2.322;2022-12-29T01:36:02;4.40;;;1.17;;
21999;SDS011;11164;48.818;2.322;2022-12-29T01:38:32;6.93;;;1.30;;
21999;SDS011;11164;48.818;2.322;2022-12-29T01:40:59;2.83;;;0.77;;
21999;SDS011;11164;48.818;2.322;2022-12-29T01:46:20;3.63;;;0.85;;
21999;SDS011;11164;48.818;2.322;2022-12-29T01:51:50;2.67;;;0.60;;
21999;SDS011;11164;48.818;2.322;2022-12-29T01:57:30;4.00;;;1.00;;
21999;SDS011;11164;48.818;2.322;2022-12-29T02:00:03;5.55;;;0.80;;
21999;SDS011;11164;48.818;2.322;2022-12-29T02:02:32;3.35;;;0.93;;
21999;SDS011;11164;48.818;2.322;2022-12-29T02:04:58;5.60;;;1.38;;
21999;SDS011;11164;48.818;2.322;2022-12-29T02:07:26;3.72;;;0.90;;
21999;SDS011;11164;48.818;2.322;2022-12-29T02:09:53;7.88;;;1.40;;
21999;SDS011;11164;48.818;2.322;2022-12-29T02:12:20;5.45;;;0.93;;
21999;SDS011;11164;48.818;2.322;2022-12-29T02:14:47;2.70;;;0.70;;
21999;SDS011;11164;48.818;2.322;2022-12-29T02:26:14;1.42;;;0.40;;
21999;SDS011;11164;48.818;2.322;2022-12-29T02:31:41;2.40;;;0.50;;
21999;SDS011;11164;48.818;2.322;2022-12-29T02:34:18;1.25;;;0.38;;
21999;SDS011;11164;48.818;2.322;2022-12-29T02:36:47;0.63;;;0.20;;
21999;SDS011;11164;48.818;2.322;2022-12-29T02:39:28;2.00;;;0.40;;
21999;SDS011;11164;48.818;2.322;2022-12-29T02:42:11;3.80;;;0.45;;
21999;SDS011;11164;48.818;2.322;2022-12-29T02:44:55;2.70;;;0.43;;
21999;SDS011;11164;48.818;2.322;2022-12-29T02:52:42;2.13;;;0.40;;
21999;SDS011;11164;48.818;2.322;2022-12-29T02:55:13;3.15;;;0.50;;
21999;SDS011;11164;48.818;2.322;2022-12-29T02:57:38;2.47;;;0.45;;
21999;SDS011;11164;48.818;2.322;2022-12-29T03:00:05;4.68;;;0.60;;
21999;SDS011;11164;48.818;2.322;2022-12-29T03:02:52;3.22;;;0.77;;
21999;SDS011;11164;48.818;2.322;2022-12-29T03:05:30;4.88;;;0.70;;
21999;SDS011;11164;48.818;2.322;2022-12-29T03:10:50;2.42;;;0.35;;
21999;SDS011;11164;48.818;2.322;2022-12-29T03:13:43;4.75;;;0.70;;
21999;SDS011;11164;48.818;2.322;2022-12-29T03:19:19;1.90;;;0.65;;
21999;SDS011;11164;48.818;2.322;2022-12-29T03:21:52;6.78;;;0.95;;
21999;SDS011;11164;48.818;2.322;2022-12-29T03:24:41;4.68;;;0.70;;
21999;SDS011;11164;48.818;2.322;2022-12-29T03:27:13;4.60;;;0.70;;
21999;SDS011;11164;48.818;2.322;2022-12-29T03:29:44;6.75;;;0.82;;
21999;SDS011;11164;48.818;2.322;2022-12-29T03:32:17;2.45;;;0.65;;
21999;SDS011;11164;48.818;2.322;2022-12-29T03:34:45;5.22;;;0.88;;
21999;SDS011;11164;48.818;2.322;2022-12-29T03:37:13;6.00;;;0.57;;
21999;SDS011;11164;48.818;2.322;2022-12-29T03:39:41;7.47;;;1.00;;
21999;SDS011;11164;48.818;2.322;2022-12-29T03:42:11;6.30;;;1.02;;
21999;SDS011;11164;48.818;2.322;2022-12-29T03:44:41;4.07;;;0.35;;
21999;SDS011;11164;48.818;2.322;2022-12-29T03:47:08;7.43;;;1.00;;
21999;SDS011;11164;48.818;2.322;2022-12-29T03:49:35;5.07;;;1.00;;
21999;SDS011;11164;48.818;2.322;2022-12-29T03:52:00;3.78;;;0.82;;
21999;SDS011;11164;48.818;2.322;2022-12-29T03:54:26;3.95;;;0.80;;
21999;SDS011;11164;48.818;2.322;2022-12-29T03:56:51;9.10;;;0.93;;
21999;SDS011;11164;48.818;2.322;2022-12-29T03:59:16;3.30;;;0.60;;
21999;SDS011;11164;48.818;2.322;2022-12-29T04:01:42;5.65;;;0.90;;
21999;SDS011;11164;48.818;2.322;2022-12-29T04:04:07;4.70;;;0.80;;
21999;SDS011;11164;48.818;2.322;2022-12-29T04:06:32;5.22;;;1.35;;
21999;SDS011;11164;48.818;2.322;2022-12-29T04:08:58;7.82;;;1.00;;
21999;SDS011;11164;48.818;2.322;2022-12-29T04:11:24;3.08;;;0.50;;
21999;SDS011;11164;48.818;2.322;2022-12-29T04:13:49;5.68;;;0.95;;
21999;SDS011;11164;48.818;2.322;2022-12-29T04:16:14;5.63;;;0.60;;
21999;SDS011;11164;48.818;2.322;2022-12-29T04:18:40;5.18;;;1.15;;
21999;SDS011;11164;48.818;2.322;2022-12-29T04:21:05;7.03;;;0.93;;
21999;SDS011;11164;48.818;2.322;2022-12-29T04:23:32;3.67;;;0.75;;
21999;SDS011;11164;48.818;2.322;2022-12-29T04:26:00;4.55;;;0.75;;
21999;SDS011;11164;48.818;2.322;2022-12-29T04:28:26;8.07;;;1.35;;
21999;SDS011;11164;48.818;2.322;2022-12-29T04:30:52;6.50;;;0.80;;
21999;SDS011;11164;48.818;2.322;2022-12-29T04:33:18;4.82;;;0.77;;
21999;SDS011;11164;48.818;2.322;2022-12-29T04:35:43;3.47;;;0.70;;
21999;SDS011;11164;48.818;2.322;2022-12-29T04:38:09;5.07;;;0.88;;
21999;SDS011;11164;48.818;2.322;2022-12-29T04:40:35;4.63;;;0.70;;
21999;SDS011;11164;48.818;2.322;2022-12-29T04:43:03;3.38;;;0.43;;
21999;SDS011;11164;48.818;2.322;2022-12-29T04:45:28;5.72;;;1.00;;
21999;SDS011;11164;48.818;2.322;2022-12-29T04:47:54;5.53;;;0.80;;
21999;SDS011;11164;48.818;2.322;2022-12-29T04:50:19;4.97;;;0.70;;
21999;SDS011;11164;48.818;2.322;2022-12-29T04:52:44;4.32;;;0.82;;
21999;SDS011;11164;48.818;2.322;2022-12-29T04:55:10;5.88;;;0.90;;
21999;SDS011;11164;48.818;2.322;2022-12-29T04:57:35;5.68;;;1.30;;
21999;SDS011;11164;48.818;2.322;2022-12-29T05:00:01;6.90;;;1.13;;
21999;SDS011;11164;48.818;2.322;2022-12-29T05:02:26;5.85;;;0.98;;
21999;SDS011;11164;48.818;2.322;2022-12-29T05:04:52;6.90;;;0.90;;
21999;SDS011;11164;48.818;2.322;2022-12-29T05:07:17;5.90;;;0.93;;
21999;SDS011;11164;48.818;2.322;2022-12-29T05:09:43;4.80;;;0.65;;
21999;SDS011;11164;48.818;2.322;2022-12-29T05:12:08;4.53;;;0.90;;
21999;SDS011;11164;48.818;2.322;2022-12-29T05:14:33;4.57;;;0.70;;
21999;SDS011;11164;48.818;2.322;2022-12-29T05:16:59;6.50;;;1.13;;
21999;SDS011;11164;48.818;2.322;2022-12-29T05:19:24;6.85;;;1.00;;
21999;SDS011;11164;48.818;2.322;2022-12-29T05:21:49;5.70;;;0.90;;
21999;SDS011;11164;48.818;2.322;2022-12-29T05:24:15;5.38;;;1.00;;
21999;SDS011;11164;48.818;2.322;2022-12-29T05:26:40;5.97;;;1.08;;
21999;SDS011;11164;48.818;2.322;2022-12-29T05:29:06;5.85;;;1.00;;
21999;SDS011;11164;48.818;2.322;2022-12-29T05:31:31;4.25;;;1.20;;
21999;SDS011;11164;48.818;2.322;2022-12-29T05:33:57;6.85;;;1.50;;
21999;SDS011;11164;48.818;2.322;2022-12-29T05:36:22;5.13;;;0.95;;
21999;SDS011;11164;48.818;2.322;2022-12-29T05:38:48;9.38;;;1.38;;
21999;SDS011;11164;48.818;2.322;2022-12-29T05:41:13;7.38;;;1.15;;
21999;SDS011;11164;48.818;2.322;2022-12-29T05:43:38;10.98;;;1.60;;
21999;SDS011;11164;48.818;2.322;2022-12-29T05:46:04;11.35;;;1.40;;
21999;SDS011;11164;48.818;2.322;2022-12-29T05:48:29;8.10;;;1.13;;
21999;SDS011;11164;48.818;2.322;2022-12-29T05:50:55;10.23;;;1.70;;
21999;SDS011;11164;48.818;2.322;2022-12-29T05:53:20;8.55;;;1.10;;
21999;SDS011;11164;48.818;2.322;2022-12-29T05:55:48;15.25;;;1.70;;
21999;SDS011;11164;48.818;2.322;2022-12-29T05:58:17;8.30;;;1.30;;
21999;SDS011;11164;48.818;2.322;2022-12-29T06:00:42;9.80;;;1.52;;
21999;SDS011;11164;48.818;2.322;2022-12-29T06:03:08;11.35;;;1.77;;
21999;SDS011;11164;48.818;2.322;2022-12-29T06:05:34;6.97;;;1.10;;
21999;SDS011;11164;48.818;2.322;2022-12-29T06:07:59;11.95;;;1.60;;
21999;SDS011;11164;48.818;2.322;2022-12-29T06:10:24;10.90;;;2.13;;
21999;SDS011;11164;48.818;2.322;2022-12-29T06:12:50;9.55;;;1.50;;
21999;SDS011;11164;48.818;2.322;2022-12-29T06:15:16;8.73;;;1.90;;
21999;SDS011;11164;48.818;2.322;2022-12-29T06:17:41;9.05;;;1.38;;
21999;SDS011;11164;48.818;2.322;2022-12-29T06:20:07;6.80;;;1.52;;
21999;SDS011;11164;48.818;2.322;2022-12-29T06:22:33;7.38;;;1.65;;
21999;SDS011;11164;48.818;2.322;2022-12-29T06:24:58;7.40;;;1.30;;
21999;SDS011;11164;48.818;2.322;2022-12-29T06:27:24;5.47;;;1.40;;
21999;SDS011;11164;48.818;2.322;2022-12-29T06:29:49;8.65;;;1.48;;
21999;SDS011;11164;48.818;2.322;2022-12-29T06:32:15;11.20;;;1.40;;
21999;SDS011;11164;48.818;2.322;2022-12-29T06:34:40;10.98;;;1.77;;
21999;SDS011;11164;48.818;2.322;2022-12-29T06:37:06;7.97;;;1.30;;
21999;SDS011;11164;48.818;2.322;2022-12-29T06:39:31;9.25;;;1.67;;
21999;SDS011;11164;48.818;2.322;2022-12-29T06:41:57;9.48;;;1.35;;
21999;SDS011;11164;48.818;2.322;2022-12-29T06:44:22;8.02;;;1.50;;
21999;SDS011;11164;48.818;2.322;2022-12-29T06:46:48;8.82;;;1.75;;
21999;SDS011;11164;48.818;2.322;2022-12-29T06:49:14;9.38;;;1.40;;
21999;SDS011;11164;48.818;2.322;2022-12-29T06:51:39;10.43;;;1.52;;
21999;SDS011;11164;48.818;2.322;2022-12-29T06:54:05;11.32;;;1.85;;
21999;SDS011;11164;48.818;2.322;2022-12-29T06:56:30;10.95;;;1.85;;
21999;SDS011;11164;48.818;2.322;2022-12-29T06:58:56;8.43;;;1.10;;
21999;SDS011;11164;48.818;2.322;2022-12-29T07:01:21;6.65;;;1.33;;
21999;SDS011;11164;48.818;2.322;2022-12-29T07:03:47;6.35;;;1.25;;
21999;SDS011;11164;48.818;2.322;2022-12-29T07:06:12;5.68;;;1.20;;
21999;SDS011;11164;48.818;2.322;2022-12-29T07:08:37;10.18;;;2.15;;
21999;SDS011;11164;48.818;2.322;2022-12-29T07:11:03;4.95;;;1.02;;
21999;SDS011;11164;48.818;2.322;2022-12-29T07:13:29;10.05;;;1.65;;
21999;SDS011;11164;48.818;2.322;2022-12-29T07:15:55;9.40;;;1.50;;
21999;SDS011;11164;48.818;2.322;2022-12-29T07:18:20;7.45;;;1.08;;
21999;SDS011;11164;48.818;2.322;2022-12-29T07:20:45;8.05;;;1.38;;
21999;SDS011;11164;48.818;2.322;2022-12-29T07:23:10;7.80;;;1.42;;
21999;SDS011;11164;48.818;2.322;2022-12-29T07:25:36;12.23;;;1.33;;
21999;SDS011;11164;48.818;2.322;2022-12-29T07:28:02;10.32;;;1.80;;
21999;SDS011;11164;48.818;2.322;2022-12-29T07:30:28;10.38;;;2.25;;
21999;SDS011;11164;48.818;2.322;2022-12-29T07:32:53;11.07;;;1.67;;
21999;SDS011;11164;48.818;2.322;2022-12-29T07:35:18;6.50;;;1.42;;
21999;SDS011;11164;48.818;2.322;2022-12-29T07:37:44;6.50;;;1.67;;
21999;SDS011;11164;48.818;2.322;2022-12-29T07:40:09;9.35;;;1.65;;
21999;SDS011;11164;48.818;2.322;2022-12-29T07:42:35;10.32;;;1.75;;
21999;SDS011;11164;48.818;2.322;2022-12-29T07:45:01;8.10;;;1.67;;
21999;SDS011;11164;48.818;2.322;2022-12-29T07:47:26;7.47;;;1.30;;
21999;SDS011;11164;48.818;2.322;2022-12-29T07:49:52;12.90;;;1.80;;
21999;SDS011;11164;48.818;2.322;2022-12-29T07:52:17;8.88;;;1.23;;
21999;SDS011;11164;48.818;2.322;2022-12-29T07:54:43;8.98;;;1.88;;
21999;SDS011;11164;48.818;2.322;2022-12-29T07:57:08;13.27;;;1.80;;
21999;SDS011;11164;48.818;2.322;2022-12-29T07:59:33;7.78;;;1.67;;
21999;SDS011;11164;48.818;2.322;2022-12-29T08:01:59;11.52;;;1.83;;
21999;SDS011;11164;48.818;2.322;2022-12-29T08:04:24;9.30;;;2.00;;
21999;SDS011;11164;48.818;2.322;2022-12-29T08:06:49;11.25;;;1.80;;
21999;SDS011;11164;48.818;2.322;2022-12-29T08:09:15;10.15;;;1.60;;
21999;SDS011;11164;48.818;2.322;2022-12-29T08:11:40;9.18;;;1.88;;
21999;SDS011;11164;48.818;2.322;2022-12-29T08:14:05;13.85;;;2.10;;
21999;SDS011;11164;48.818;2.322;2022-12-29T08:16:31;11.50;;;1.77;;
21999;SDS011;11164;48.818;2.322;2022-12-29T08:18:57;10.43;;;1.70;;
21999;SDS011;11164;48.818;2.322;2022-12-29T08:21:23;10.63;;;2.05;;
21999;SDS011;11164;48.818;2.322;2022-12-29T08:23:49;14.75;;;1.70;;
21999;SDS011;11164;48.818;2.322;2022-12-29T08:26:14;14.50;;;2.35;;
21999;SDS011;11164;48.818;2.322;2022-12-29T08:28:40;13.65;;;2.58;;
21999;SDS011;11164;48.818;2.322;2022-12-29T08:31:05;9.15;;;1.92;;
21999;SDS011;11164;48.818;2.322;2022-12-29T08:33:31;10.48;;;1.58;;
21999;SDS011;11164;48.818;2.322;2022-12-29T08:36:00;15.43;;;2.15;;
21999;SDS011;11164;48.818;2.322;2022-12-29T08:38:27;8.65;;;2.08;;
21999;SDS011;11164;48.818;2.322;2022-12-29T08:40:54;12.07;;;1.95;;
21999;SDS011;11164;48.818;2.322;2022-12-29T08:43:19;12.82;;;2.47;;
21999;SDS011;11164;48.818;2.322;2022-12-29T08:45:44;11.93;;;2.15;;
21999;SDS011;11164;48.818;2.322;2022-12-29T08:48:10;8.07;;;1.58;;
21999;SDS011;11164;48.818;2.322;2022-12-29T08:50:35;9.90;;;1.40;;
21999;SDS011;11164;48.818;2.322;2022-12-29T08:53:00;12.27;;;1.80;;
21999;SDS011;11164;48.818;2.322;2022-12-29T08:55:25;10.35;;;1.85;;
21999;SDS011;11164;48.818;2.322;2022-12-29T08:57:51;10.23;;;1.58;;
21999;SDS011;11164;48.818;2.322;2022-12-29T09:00:17;9.02;;;1.67;;
21999;SDS011;11164;48.818;2.322;2022-12-29T09:02:42;13.07;;;2.08;;
21999;SDS011;11164;48.818;2.322;2022-12-29T09:05:08;6.63;;;1.63;;
21999;SDS011;11164;48.818;2.322;2022-12-29T09:07:34;11.57;;;2.10;;
21999;SDS011;11164;48.818;2.322;2022-12-29T09:10:00;10.85;;;2.22;;
21999;SDS011;11164;48.818;2.322;2022-12-29T09:12:26;12.55;;;2.08;;
21999;SDS011;11164;48.818;2.322;2022-12-29T09:14:52;15.95;;;2.60;;
21999;SDS011;11164;48.818;2.322;2022-12-29T09:17:17;15.10;;;3.35;;
21999;SDS011;11164;48.818;2.322;2022-12-29T09:20:01;15.02;;;2.53;;
21999;SDS011;11164;48.818;2.322;2022-12-29T09:22:26;14.25;;;3.40;;
21999;SDS011;11164;48.818;2.322;2022-12-29T09:24:54;15.40;;;2.70;;
21999;SDS011;11164;48.818;2.322;2022-12-29T09:27:20;14.43;;;4.00;;
21999;SDS011;11164;48.818;2.322;2022-12-29T09:29:45;14.95;;;4.22;;
21999;SDS011;11164;48.818;2.322;2022-12-29T09:32:10;14.48;;;4.57;;
21999;SDS011;11164;48.818;2.322;2022-12-29T09:34:36;14.38;;;2.55;;
21999;SDS011;11164;48.818;2.322;2022-12-29T09:37:01;16.38;;;3.70;;
21999;SDS011;11164;48.818;2.322;2022-12-29T09:39:26;14.38;;;3.15;;
21999;SDS011;11164;48.818;2.322;2022-12-29T09:42:04;17.50;;;2.60;;
21999;SDS011;11164;48.818;2.322;2022-12-29T09:47:20;12.93;;;2.58;;
21999;SDS011;11164;48.818;2.322;2022-12-29T09:52:22;12.07;;;1.85;;
21999;SDS011;11164;48.818;2.322;2022-12-29T09:54:59;18.35;;;4.53;;
21999;SDS011;11164;48.818;2.322;2022-12-29T09:57:36;16.15;;;3.10;;
21999;SDS011;11164;48.818;2.322;2022-12-29T10:00:14;10.65;;;2.33;;
21999;SDS011;11164;48.818;2.322;2022-12-29T10:03:02;18.02;;;2.53;;
21999;SDS011;11164;48.818;2.322;2022-12-29T10:11:08;13.00;;;1.90;;
21999;SDS011;11164;48.818;2.322;2022-12-29T10:16:17;16.10;;;2.42;;
21999;SDS011;11164;48.818;2.322;2022-12-29T10:22:15;16.73;;;2.45;;
21999;SDS011;11164;48.818;2.322;2022-12-29T10:24:53;11.30;;;2.30;;
21999;SDS011;11164;48.818;2.322;2022-12-29T10:27:20;11.55;;;2.17;;
21999;SDS011;11164;48.818;2.322;2022-12-29T10:29:53;10.65;;;2.05;;
21999;SDS011;11164;48.818;2.322;2022-12-29T10:32:26;15.05;;;2.63;;
21999;SDS011;11164;48.818;2.322;2022-12-29T10:34:53;15.85;;;2.67;;
21999;SDS011;11164;48.818;2.322;2022-12-29T10:37:30;13.55;;;2.20;;
21999;SDS011;11164;48.818;2.322;2022-12-29T10:40:11;8.48;;;1.90;;
21999;SDS011;11164;48.818;2.322;2022-12-29T10:42:45;13.35;;;1.95;;
21999;SDS011;11164;48.818;2.322;2022-12-29T10:45:15;11.23;;;2.25;;
21999;SDS011;11164;48.818;2.322;2022-12-29T10:50:30;14.93;;;2.40;;
21999;SDS011;11164;48.818;2.322;2022-12-29T10:53:00;9.88;;;1.60;;
21999;SDS011;11164;48.818;2.322;2022-12-29T10:55:29;9.50;;;1.70;;
21999;SDS011;11164;48.818;2.322;2022-12-29T10:57:59;14.15;;;1.92;;
21999;SDS011;11164;48.818;2.322;2022-12-29T11:00:29;13.55;;;2.25;;
21999;SDS011;11164;48.818;2.322;2022-12-29T11:03:09;15.02;;;2.85;;
21999;SDS011;11164;48.818;2.322;2022-12-29T11:08:33;9.32;;;2.17;;
21999;SDS011;11164;48.818;2.322;2022-12-29T11:11:02;11.55;;;2.55;;
21999;SDS011;11164;48.818;2.322;2022-12-29T11:13:33;13.02;;;2.22;;
21999;SDS011;11164;48.818;2.322;2022-12-29T11:16:11;11.02;;;2.28;;
21999;SDS011;11164;48.818;2.322;2022-12-29T11:18:37;14.00;;;2.20;;
21999;SDS011;11164;48.818;2.322;2022-12-29T11:21:23;10.38;;;2.15;;
21999;SDS011;11164;48.818;2.322;2022-12-29T11:23:56;12.05;;;2.70;;
21999;SDS011;11164;48.818;2.322;2022-12-29T11:26:24;12.40;;;2.50;;
21999;SDS011;11164;48.818;2.322;2022-12-29T11:29:11;11.95;;;2.47;;
21999;SDS011;11164;48.818;2.322;2022-12-29T11:31:40;13.57;;;2.53;;
21999;SDS011;11164;48.818;2.322;2022-12-29T11:34:07;11.43;;;2.53;;
21999;SDS011;11164;48.818;2.322;2022-12-29T11:36:32;11.15;;;2.35;;
21999;SDS011;11164;48.818;2.322;2022-12-29T11:39:00;8.82;;;1.70;;
21999;SDS011;11164;48.818;2.322;2022-12-29T11:41:29;12.95;;;2.20;;
21999;SDS011;11164;48.818;2.322;2022-12-29T11:43:57;12.38;;;2.70;;
21999;SDS011;11164;48.818;2.322;2022-12-29T11:46:30;17.45;;;3.15;;
21999;SDS011;11164;48.818;2.322;2022-12-29T11:48:58;15.85;;;3.22;;
21999;SDS011;11164;48.818;2.322;2022-12-29T11:51:47;11.48;;;2.50;;
21999;SDS011;11164;48.818;2.322;2022-12-29T11:54:15;17.50;;;2.53;;
21999;SDS011;11164;48.818;2.322;2022-12-29T11:56:48;12.25;;;2.25;;
21999;SDS011;11164;48.818;2.322;2022-12-29T12:01:57;9.40;;;2.25;;
21999;SDS011;11164;48.818;2.322;2022-12-29T12:04:30;15.77;;;2.65;;
21999;SDS011;11164;48.818;2.322;2022-12-29T12:09:35;17.48;;;3.22;;
21999;SDS011;11164;48.818;2.322;2022-12-29T12:12:08;12.25;;;2.03;;
21999;SDS011;11164;48.818;2.322;2022-12-29T12:14:42;16.52;;;3.67;;
21999;SDS011;11164;48.818;2.322;2022-12-29T12:18:00;13.80;;;2.78;;
21999;SDS011;11164;48.818;2.322;2022-12-29T12:20:19;10.75;;;2.25;;
21999;SDS011;11164;48.818;2.322;2022-12-29T12:22:53;15.05;;;2.17;;
21999;SDS011;11164;48.818;2.322;2022-12-29T12:25:31;10.70;;;2.30;;
21999;SDS011;11164;48.818;2.322;2022-12-29T12:28:13;14.90;;;2.42;;
21999;SDS011;11164;48.818;2.322;2022-12-29T12:30:52;9.40;;;1.85;;
21999;SDS011;11164;48.818;2.322;2022-12-29T12:33:27;10.45;;;2.00;;
21999;SDS011;11164;48.818;2.322;2022-12-29T12:41:34;11.15;;;1.80;;
21999;SDS011;11164;48.818;2.322;2022-12-29T12:44:28;14.65;;;2.35;;
21999;SDS011;11164;48.818;2.322;2022-12-29T12:47:11;10.48;;;1.90;;
21999;SDS011;11164;48.818;2.322;2022-12-29T13:00:34;13.10;;;2.35;;
21999;SDS011;11164;48.818;2.322;2022-12-29T13:03:37;6.97;;;1.38;;
21999;SDS011;11164;48.818;2.322;2022-12-29T13:11:47;7.95;;;1.80;;
21999;SDS011;11164;48.818;2.322;2022-12-29T13:14:40;9.05;;;1.20;;
21999;SDS011;11164;48.818;2.322;2022-12-29T13:17:15;7.07;;;1.77;;
21999;SDS011;11164;48.818;2.322;2022-12-29T13:25:23;11.50;;;2.42;;
21999;SDS011;11164;48.818;2.322;2022-12-29T13:27:55;9.10;;;1.83;;
21999;SDS011;11164;48.818;2.322;2022-12-29T13:33:47;10.55;;;2.08;;
21999;SDS011;11164;48.818;2.322;2022-12-29T13:36:22;12.50;;;1.67;;
21999;SDS011;11164;48.818;2.322;2022-12-29T13:38:55;11.60;;;1.70;;
21999;SDS011;11164;48.818;2.322;2022-12-29T13:41:45;13.48;;;2.22;;
21999;SDS011;11164;48.818;2.322;2022-12-29T13:44:20;9.60;;;2.15;;
21999;SDS011;11164;48.818;2.322;2022-12-29T13:46:49;14.48;;;2.72;;
21999;SDS011;11164;48.818;2.322;2022-12-29T13:49:18;12.27;;;2.40;;
21999;SDS011;11164;48.818;2.322;2022-12-29T13:51:49;9.30;;;2.15;;
21999;SDS011;11164;48.818;2.322;2022-12-29T13:57:28;14.15;;;2.80;;
21999;SDS011;11164;48.818;2.322;2022-12-29T13:59:58;11.82;;;2.35;;
21999;SDS011;11164;48.818;2.322;2022-12-29T14:07:26;13.85;;;2.30;;
21999;SDS011;11164;48.818;2.322;2022-12-29T14:09:52;14.65;;;2.05;;
21999;SDS011;11164;48.818;2.322;2022-12-29T14:12:39;11.57;;;1.92;;
21999;SDS011;11164;48.818;2.322;2022-12-29T14:17:35;10.68;;;1.90;;
21999;SDS011;11164;48.818;2.322;2022-12-29T14:20:01;18.25;;;2.50;;
21999;SDS011;11164;48.818;2.322;2022-12-29T14:22:28;13.32;;;2.63;;
21999;SDS011;11164;48.818;2.322;2022-12-29T14:24:54;8.35;;;2.00;;
21999;SDS011;11164;48.818;2.322;2022-12-29T14:29:45;13.32;;;2.92;;
21999;SDS011;11164;48.818;2.322;2022-12-29T14:34:56;10.48;;;1.95;;
21999;SDS011;11164;48.818;2.322;2022-12-29T14:37:32;15.63;;;2.92;;
21999;SDS011;11164;48.818;2.322;2022-12-29T14:42:51;13.18;;;2.03;;
21999;SDS011;11164;48.818;2.322;2022-12-29T14:47:45;11.20;;;2.45;;
21999;SDS011;11164;48.818;2.322;2022-12-29T14:53:06;8.68;;;2.15;;
21999;SDS011;11164;48.818;2.322;2022-12-29T14:56:08;11.45;;;1.98;;
21999;SDS011;11164;48.818;2.322;2022-12-29T14:59:17;7.60;;;1.52;;
21999;SDS011;11164;48.818;2.322;2022-12-29T15:01:36;9.93;;;1.80;;
21999;SDS011;11164;48.818;2.322;2022-12-29T15:06:56;10.52;;;2.00;;
21999;SDS011;11164;48.818;2.322;2022-12-29T15:09:29;13.05;;;1.83;;
21999;SDS011;11164;48.818;2.322;2022-12-29T15:12:04;12.93;;;2.22;;
21999;SDS011;11164;48.818;2.322;2022-12-29T15:20:00;8.90;;;1.80;;
21999;SDS011;11164;48.818;2.322;2022-12-29T15:22:47;7.28;;;1.60;;
21999;SDS011;11164;48.818;2.322;2022-12-29T15:25:16;10.27;;;2.28;;
21999;SDS011;11164;48.818;2.322;2022-12-29T15:27:43;13.07;;;2.45;;
21999;SDS011;11164;48.818;2.322;2022-12-29T15:30:15;10.45;;;1.70;;
21999;SDS011;11164;48.818;2.322;2022-12-29T15:32:42;8.95;;;1.58;;
21999;SDS011;11164;48.818;2.322;2022-12-29T15:37:58;10.55;;;2.33;;
21999;SDS011;11164;48.818;2.322;2022-12-29T15:40:25;10.30;;;1.98;;
21999;SDS011;11164;48.818;2.322;2022-12-29T15:43:18;9.48;;;1.83;;
21999;SDS011;11164;48.818;2.322;2022-12-29T15:45:46;12.32;;;2.58;;
21999;SDS011;11164;48.818;2.322;2022-12-29T15:48:16;11.45;;;2.13;;
21999;SDS011;11164;48.818;2.322;2022-12-29T15:50:44;8.77;;;2.17;;
21999;SDS011;11164;48.818;2.322;2022-12-29T15:53:11;12.32;;;2.00;;
21999;SDS011;11164;48.818;2.322;2022-12-29T15:55:42;8.82;;;1.52;;
21999;SDS011;11164;48.818;2.322;2022-12-29T15:58:22;8.60;;;1.42;;
21999;SDS011;11164;48.818;2.322;2022-12-29T16:00:59;14.32;;;2.20;;
21999;SDS011;11164;48.818;2.322;2022-12-29T16:03:27;7.03;;;1.67;;
21999;SDS011;11164;48.818;2.322;2022-12-29T16:06:07;9.27;;;1.92;;
21999;SDS011;11164;48.818;2.322;2022-12-29T16:09:01;12.45;;;2.10;;
21999;SDS011;11164;48.818;2.322;2022-12-29T16:11:54;14.25;;;2.35;;
21999;SDS011;11164;48.818;2.322;2022-12-29T16:14:24;9.32;;;2.10;;
21999;SDS011;11164;48.818;2.322;2022-12-29T16:16:59;13.02;;;2.38;;
21999;SDS011;11164;48.818;2.322;2022-12-29T16:19:38;11.45;;;2.20;;
21999;SDS011;11164;48.818;2.322;2022-12-29T16:22:09;8.02;;;1.90;;
21999;SDS011;11164;48.818;2.322;2022-12-29T16:24:37;12.43;;;2.10;;
21999;SDS011;11164;48.818;2.322;2022-12-29T16:29:30;7.07;;;1.80;;
21999;SDS011;11164;48.818;2.322;2022-12-29T16:31:59;10.50;;;2.50;;
21999;SDS011;11164;48.818;2.322;2022-12-29T16:37:05;12.32;;;2.33;;
21999;SDS011;11164;48.818;2.322;2022-12-29T16:39:47;12.15;;;2.30;;
21999;SDS011;11164;48.818;2.322;2022-12-29T16:47:43;11.73;;;2.30;;
21999;SDS011;11164;48.818;2.322;2022-12-29T16:50:12;10.40;;;2.47;;
21999;SDS011;11164;48.818;2.322;2022-12-29T16:52:45;10.23;;;2.00;;
21999;SDS011;11164;48.818;2.322;2022-12-29T16:55:17;14.77;;;2.42;;
21999;SDS011;11164;48.818;2.322;2022-12-29T16:57:44;14.18;;;2.53;;
21999;SDS011;11164;48.818;2.322;2022-12-29T17:00:19;9.55;;;2.05;;
21999;SDS011;11164;48.818;2.322;2022-12-29T17:02:47;13.52;;;2.65;;
21999;SDS011;11164;48.818;2.322;2022-12-29T17:05:14;14.35;;;2.55;;
21999;SDS011;11164;48.818;2.322;2022-12-29T17:07:41;14.40;;;2.53;;
21999;SDS011;11164;48.818;2.322;2022-12-29T17:10:07;8.00;;;2.22;;
21999;SDS011;11164;48.818;2.322;2022-12-29T17:12:33;15.55;;;2.78;;
21999;SDS011;11164;48.818;2.322;2022-12-29T17:15:14;14.25;;;2.70;;